createdAt,value
2018-05-25T00:00:42.819Z,3.43
2018-05-25T00:03:15.476Z,3.20
2018-05-25T00:05:48.910Z,3.27
2018-05-25T00:08:21.526Z,3.20
2018-05-25T00:10:54.207Z,3.30
2018-05-25T00:13:26.835Z,3.47
2018-05-25T00:15:59.483Z,3.70
2018-05-25T00:18:32.113Z,3.33
2018-05-25T00:21:04.759Z,3.73
2018-05-25T00:23:37.379Z,3.47
2018-05-25T00:26:10.023Z,4.00
2018-05-25T00:28:42.638Z,3.80
2018-05-25T00:31:16.062Z,3.87
2018-05-25T00:33:48.954Z,3.60
2018-05-25T00:36:21.593Z,3.97
2018-05-25T00:38:54.210Z,3.80
2018-05-25T00:41:26.858Z,3.80
2018-05-25T00:43:59.475Z,3.93
2018-05-25T00:46:32.146Z,3.90
2018-05-25T00:49:04.772Z,3.80
2018-05-25T00:51:38.193Z,4.10
2018-05-25T00:54:10.881Z,3.70
2018-05-25T00:56:43.552Z,3.80
2018-05-25T00:59:16.937Z,3.87
2018-05-25T01:01:49.594Z,3.40
2018-05-25T01:04:22.214Z,3.77
2018-05-25T01:06:54.854Z,3.73
2018-05-25T01:09:28.239Z,4.10
2018-05-25T01:12:01.077Z,4.03
2018-05-25T01:14:33.691Z,4.27
2018-05-25T01:17:06.359Z,4.40
2018-05-25T01:19:38.974Z,3.57
2018-05-25T01:22:11.639Z,3.53
2018-05-25T01:24:44.267Z,3.77
2018-05-25T01:27:16.932Z,3.40
2018-05-25T01:29:49.557Z,3.87
2018-05-25T01:32:22.220Z,3.87
2018-05-25T01:34:54.847Z,3.63
2018-05-25T01:37:27.510Z,4.07
2018-05-25T01:40:00.140Z,3.70
2018-05-25T01:42:32.805Z,3.60
2018-05-25T01:45:05.419Z,3.83
2018-05-25T01:47:38.076Z,3.43
2018-05-25T01:50:10.711Z,3.37
2018-05-25T01:52:43.366Z,3.57
2018-05-25T01:55:15.981Z,3.83
2018-05-25T01:57:48.615Z,3.30
2018-05-25T02:00:22.010Z,3.50
2018-05-25T02:02:55.436Z,3.97
2018-05-25T02:05:28.064Z,3.87
2018-05-25T02:08:00.730Z,3.53
2018-05-25T02:10:33.346Z,3.30
2018-05-25T02:13:06.054Z,4.23
2018-05-25T02:15:38.675Z,3.97
2018-05-25T02:18:11.342Z,3.43
2018-05-25T02:20:43.965Z,3.70
2018-05-25T02:23:16.627Z,3.67
2018-05-25T02:25:49.253Z,3.97
2018-05-25T02:28:21.925Z,3.53
2018-05-25T02:30:54.550Z,3.63
2018-05-25T02:33:30.895Z,3.50
2018-05-25T02:36:03.537Z,3.50
2018-05-25T02:38:36.210Z,3.50
2018-05-25T02:41:08.836Z,3.00
2018-05-25T02:43:41.499Z,3.40
2018-05-25T02:46:14.122Z,3.40
2018-05-25T02:48:46.791Z,3.73
2018-05-25T02:51:19.415Z,3.47
2018-05-25T02:53:52.065Z,3.57
2018-05-25T02:56:24.688Z,3.50
2018-05-25T02:58:57.331Z,3.30
2018-05-25T03:01:30.721Z,3.73
2018-05-25T03:04:03.386Z,3.80
2018-05-25T03:06:36.008Z,3.57
2018-05-25T03:09:08.655Z,3.10
2018-05-25T03:11:41.311Z,3.70
2018-05-25T03:14:14.740Z,4.10
2018-05-25T03:16:47.371Z,3.53
2018-05-25T03:19:20.081Z,3.80
2018-05-25T03:21:52.703Z,3.50
2018-05-25T03:24:25.379Z,4.00
2018-05-25T03:26:57.997Z,3.37
2018-05-25T03:29:30.660Z,3.40
2018-05-25T03:32:03.287Z,3.63
2018-05-25T03:34:35.955Z,4.30
2018-05-25T03:37:09.352Z,3.60
2018-05-25T03:39:42.016Z,3.60
2018-05-25T03:42:14.635Z,4.00
2018-05-25T03:44:47.307Z,3.50
2018-05-25T03:47:19.930Z,4.40
2018-05-25T03:49:53.354Z,3.83
2018-05-25T03:52:25.975Z,3.37
2018-05-25T03:54:58.644Z,3.63
2018-05-25T03:57:32.038Z,3.20
2018-05-25T04:00:16.527Z,4.33
2018-05-25T04:02:49.139Z,3.73
2018-05-25T04:05:21.816Z,3.77
2018-05-25T04:07:54.448Z,3.97
2018-05-25T04:10:27.143Z,4.07
2018-05-25T04:12:59.808Z,3.40
2018-05-25T04:15:32.471Z,3.70
2018-05-25T04:18:05.091Z,3.80
2018-05-25T04:20:37.746Z,3.90
2018-05-25T04:23:11.149Z,3.73
2018-05-25T04:25:43.816Z,4.70
2018-05-25T04:28:16.435Z,4.67
2018-05-25T04:30:49.090Z,3.20
2018-05-25T04:33:21.730Z,3.73
2018-05-25T04:35:55.155Z,3.30
2018-05-25T04:38:27.780Z,3.50
2018-05-25T04:41:00.420Z,3.57
2018-05-25T04:43:33.805Z,3.63
2018-05-25T04:46:06.450Z,3.33
2018-05-25T04:48:39.071Z,3.30
2018-05-25T04:51:11.742Z,5.23
2018-05-25T04:53:44.371Z,3.30
2018-05-25T04:56:17.014Z,3.47
2018-05-25T04:58:49.920Z,3.37
2018-05-25T05:01:23.327Z,3.10
2018-05-25T05:03:55.947Z,3.97
2018-05-25T05:06:28.609Z,3.53
2018-05-25T05:09:01.264Z,3.53
2018-05-25T05:11:33.931Z,3.40
2018-05-25T05:14:06.563Z,3.00
2018-05-25T05:16:39.238Z,3.33
2018-05-25T05:19:11.861Z,3.50
2018-05-25T05:21:44.504Z,3.23
2018-05-25T05:24:17.136Z,3.70
2018-05-25T05:26:50.539Z,3.20
2018-05-25T05:29:23.162Z,4.13
2018-05-25T05:31:55.824Z,3.70
2018-05-25T05:34:29.211Z,3.53
2018-05-25T05:37:01.863Z,3.40
2018-05-25T05:39:34.478Z,3.57
2018-05-25T05:42:07.152Z,3.07
2018-05-25T05:44:39.779Z,4.40
2018-05-25T05:47:12.438Z,3.30
2018-05-25T05:49:45.059Z,3.43
2018-05-25T05:52:17.718Z,3.37
2018-05-25T05:54:50.386Z,3.47
2018-05-25T05:57:28.844Z,3.50
2018-05-25T06:00:01.471Z,4.00
2018-05-25T06:02:34.215Z,3.10
2018-05-25T06:05:06.871Z,3.47
2018-05-25T06:07:39.562Z,3.73
2018-05-25T06:10:12.960Z,3.40
2018-05-25T06:12:45.658Z,3.37
2018-05-25T06:15:18.283Z,3.47
2018-05-25T06:17:50.940Z,3.27
2018-05-25T06:20:23.555Z,3.50
2018-05-25T06:22:56.211Z,3.27
2018-05-25T06:25:28.914Z,3.57
2018-05-25T06:28:01.556Z,3.40
2018-05-25T06:30:34.185Z,3.53
2018-05-25T06:33:06.827Z,3.80
2018-05-25T06:35:39.476Z,3.60
2018-05-25T06:38:12.165Z,4.00
2018-05-25T06:40:44.782Z,3.17
2018-05-25T06:43:17.446Z,3.63
2018-05-25T06:45:50.067Z,4.00
2018-05-25T06:48:23.471Z,3.43
2018-05-25T06:50:56.863Z,3.67
2018-05-25T06:53:29.523Z,6.87
2018-05-25T06:56:02.143Z,5.30
2018-05-25T06:58:34.823Z,4.50
2018-05-25T07:01:07.455Z,4.00
2018-05-25T07:03:40.098Z,3.33
2018-05-25T07:06:12.747Z,4.33
2018-05-25T07:08:45.412Z,3.23
2018-05-25T07:11:18.055Z,3.60
2018-05-25T07:13:51.435Z,3.80
2018-05-25T07:16:24.818Z,3.40
2018-05-25T07:18:57.478Z,3.63
2018-05-25T07:21:30.105Z,3.60
2018-05-25T07:24:02.772Z,3.37
2018-05-25T07:26:35.396Z,3.70
2018-05-25T07:29:08.052Z,3.47
2018-05-25T07:31:40.689Z,3.60
2018-05-25T07:34:14.114Z,4.07
2018-05-25T07:36:46.739Z,3.43
2018-05-25T07:39:19.447Z,3.43
2018-05-25T07:41:52.063Z,3.30
2018-05-25T07:44:24.721Z,3.37
2018-05-25T07:46:57.339Z,3.40
2018-05-25T07:49:29.999Z,3.13
2018-05-25T07:52:02.619Z,3.70
2018-05-25T07:54:35.251Z,3.10
2018-05-25T07:57:07.881Z,3.50
2018-05-25T07:59:40.516Z,3.27
2018-05-25T08:02:13.894Z,3.20
2018-05-25T08:04:46.532Z,3.20
2018-05-25T08:07:19.147Z,3.50
2018-05-25T08:09:51.816Z,3.20
2018-05-25T08:12:24.438Z,3.27
2018-05-25T08:14:57.111Z,3.23
2018-05-25T08:17:29.754Z,3.13
2018-05-25T08:20:02.406Z,3.40
2018-05-25T08:22:35.048Z,3.40
2018-05-25T08:25:07.733Z,3.50
2018-05-25T08:27:40.359Z,3.27
2018-05-25T08:30:13.019Z,3.00
2018-05-25T08:32:45.638Z,3.50
2018-05-25T08:35:18.295Z,3.17
2018-05-25T08:37:50.905Z,3.40
2018-05-25T08:40:24.327Z,3.00
2018-05-25T08:42:56.951Z,2.70
2018-05-25T08:45:29.617Z,3.17
2018-05-25T08:48:02.226Z,3.10
2018-05-25T08:50:34.898Z,3.60
2018-05-25T08:53:08.284Z,3.20
2018-05-25T08:55:40.939Z,3.30
2018-05-25T08:58:13.571Z,3.20
2018-05-25T09:00:46.223Z,3.43
2018-05-25T09:03:18.838Z,3.13
2018-05-25T09:05:51.491Z,3.30
2018-05-25T09:08:24.104Z,3.40
2018-05-25T09:10:56.744Z,3.30
2018-05-25T09:13:30.136Z,3.17
2018-05-25T09:16:02.797Z,2.80
2018-05-25T09:18:35.422Z,3.07
2018-05-25T09:21:08.087Z,2.70
2018-05-25T09:23:40.738Z,2.90
2018-05-25T09:26:13.386Z,3.03
2018-05-25T09:28:46.010Z,3.47
2018-05-25T09:31:19.440Z,2.20
2018-05-25T09:33:52.055Z,2.77
2018-05-25T09:36:24.749Z,2.63
2018-05-25T09:38:57.377Z,2.50
2018-05-25T09:41:30.032Z,2.60
2018-05-25T09:44:02.654Z,2.33
2018-05-25T09:46:35.307Z,2.60
2018-05-25T09:49:07.923Z,2.50
2018-05-25T09:51:40.598Z,2.40
2018-05-25T09:54:13.219Z,2.33
2018-05-25T09:57:00.916Z,2.33
2018-05-25T09:59:33.546Z,2.63
2018-05-25T10:02:06.215Z,2.40
2018-05-25T10:04:38.842Z,2.43
2018-05-25T10:07:11.511Z,2.30
2018-05-25T10:09:44.136Z,2.50
2018-05-25T10:12:16.777Z,2.03
2018-05-25T10:14:49.405Z,2.43
2018-05-25T10:17:22.058Z,2.50
2018-05-25T10:19:54.667Z,2.53
2018-05-25T10:22:27.338Z,2.27
2018-05-25T10:24:59.968Z,2.23
2018-05-25T10:27:32.614Z,2.20
2018-05-25T10:30:05.226Z,2.20
2018-05-25T10:32:37.871Z,2.10
2018-05-25T10:35:11.290Z,2.30
2018-05-25T10:37:43.987Z,2.93
2018-05-25T10:40:16.616Z,2.40
2018-05-25T10:42:49.287Z,2.47
2018-05-25T10:45:21.887Z,2.37
2018-05-25T10:47:54.548Z,2.23
2018-05-25T10:50:27.138Z,2.40
2018-05-25T10:52:59.750Z,2.30
2018-05-25T10:55:32.347Z,1.93
2018-05-25T10:58:04.987Z,2.40
2018-05-25T11:00:37.586Z,2.30
2018-05-25T11:03:10.225Z,2.20
2018-05-25T11:05:42.811Z,2.30
2018-05-25T11:08:15.447Z,2.23
2018-05-25T11:10:48.071Z,2.07
2018-05-25T11:13:21.476Z,2.07
2018-05-25T11:15:54.082Z,2.10
2018-05-25T11:18:26.749Z,2.10
2018-05-25T11:21:00.152Z,2.20
2018-05-25T11:23:32.755Z,2.10
2018-05-25T11:26:05.346Z,2.20
2018-05-25T11:28:38.728Z,2.67
2018-05-25T11:31:11.338Z,2.13
2018-05-25T11:33:43.976Z,2.33
2018-05-25T11:36:16.572Z,2.13
2018-05-25T11:38:49.193Z,2.10
2018-05-25T11:41:21.800Z,2.37
2018-05-25T11:43:54.418Z,2.05
2018-05-25T11:46:27.006Z,2.37
2018-05-25T11:48:59.638Z,2.47
2018-05-25T11:51:32.245Z,2.40
2018-05-25T11:54:04.895Z,2.10
2018-05-25T11:56:37.496Z,2.30
2018-05-25T11:59:10.133Z,2.37
2018-05-25T12:01:42.765Z,2.97
2018-05-25T12:04:15.465Z,2.17
2018-05-25T12:06:48.076Z,2.20
2018-05-25T12:09:20.707Z,2.30
2018-05-25T12:11:53.315Z,1.93
2018-05-25T12:14:25.941Z,2.20
2018-05-25T12:16:58.563Z,2.58
2018-05-25T12:19:31.191Z,2.40
2018-05-25T12:22:04.555Z,2.20
2018-05-25T12:24:37.190Z,2.53
2018-05-25T12:27:09.793Z,2.40
2018-05-25T12:29:42.422Z,2.70
2018-05-25T12:32:15.021Z,2.58
2018-05-25T12:34:47.655Z,2.12
2018-05-25T12:37:21.019Z,2.30
2018-05-25T12:39:53.641Z,2.40
2018-05-25T12:42:26.261Z,2.65
2018-05-25T12:45:10.806Z,2.00
2018-05-25T12:47:43.416Z,2.65
2018-05-25T12:50:16.030Z,2.40
2018-05-25T12:52:48.630Z,2.22
2018-05-25T12:55:21.271Z,2.62
2018-05-25T12:57:54.635Z,2.45
2018-05-25T13:00:27.266Z,2.20
2018-05-25T13:02:59.867Z,2.22
2018-05-25T13:05:33.258Z,2.35
2018-05-25T13:08:05.854Z,2.50
2018-05-25T13:10:38.488Z,2.40
2018-05-25T13:13:11.095Z,2.40
2018-05-25T13:15:43.727Z,2.20
2018-05-25T13:18:16.328Z,2.17
2018-05-25T13:20:48.963Z,2.30
2018-05-25T13:23:21.570Z,1.92
2018-05-25T13:25:54.210Z,2.42
2018-05-25T13:28:26.815Z,2.10
2018-05-25T13:30:59.467Z,2.30
2018-05-25T13:33:32.092Z,2.53
2018-05-25T13:36:04.707Z,2.47
2018-05-25T13:38:37.300Z,2.10
2018-05-25T13:41:09.926Z,2.22
2018-05-25T13:43:42.527Z,2.30
2018-05-25T13:46:15.175Z,2.35
2018-05-25T13:48:47.782Z,1.87
2018-05-25T13:51:20.420Z,2.20
2018-05-25T13:53:53.790Z,2.17
2018-05-25T13:56:26.403Z,2.20
2018-05-25T13:58:59.003Z,1.90
2018-05-25T14:01:32.407Z,2.28
2018-05-25T14:04:05.004Z,2.30
2018-05-25T14:06:38.387Z,2.00
2018-05-25T14:09:11.085Z,2.58
2018-05-25T14:11:43.768Z,2.20
2018-05-25T14:14:16.331Z,2.10
2018-05-25T14:16:48.967Z,2.20
2018-05-25T14:19:21.567Z,2.22
2018-05-25T14:21:54.229Z,2.30
2018-05-25T14:24:26.852Z,2.58
2018-05-25T14:26:59.495Z,3.05
2018-05-25T14:29:32.095Z,2.42
2018-05-25T14:32:04.730Z,2.40
2018-05-25T14:34:37.356Z,3.03
2018-05-25T14:37:09.999Z,3.05
2018-05-25T14:39:42.595Z,2.50
2018-05-25T14:42:15.234Z,2.67
2018-05-25T14:44:47.864Z,2.80
2018-05-25T14:47:20.496Z,2.30
2018-05-25T14:49:53.098Z,2.90
2018-05-25T14:52:25.728Z,2.42
2018-05-25T14:54:58.324Z,2.70
2018-05-25T14:57:30.938Z,2.40
2018-05-25T15:00:03.526Z,2.42
2018-05-25T15:02:36.147Z,3.22
2018-05-25T15:05:08.738Z,2.78
2018-05-25T15:07:41.357Z,2.10
2018-05-25T15:10:13.963Z,2.20
2018-05-25T15:12:46.580Z,2.00
2018-05-25T15:15:19.172Z,1.70
2018-05-25T15:17:51.871Z,2.25
2018-05-25T15:20:24.526Z,2.40
2018-05-25T15:22:57.893Z,1.73
2018-05-25T15:25:31.263Z,2.15
2018-05-25T15:28:04.415Z,2.17
2018-05-25T15:30:37.039Z,1.90
2018-05-25T15:33:09.663Z,1.80
2018-05-25T15:35:42.261Z,1.92
2018-05-25T15:38:14.895Z,2.17
2018-05-25T15:40:47.518Z,1.80
2018-05-25T15:43:20.146Z,2.10
2018-05-25T15:45:52.746Z,1.80
2018-05-25T15:48:25.436Z,2.30
2018-05-25T15:50:58.859Z,1.90
2018-05-25T15:53:31.507Z,2.08
2018-05-25T15:56:04.142Z,1.77
2018-05-25T15:58:36.867Z,2.13
2018-05-25T16:01:09.476Z,2.33
2018-05-25T16:03:42.118Z,2.08
2018-05-25T16:06:14.744Z,1.97
2018-05-25T16:08:47.447Z,1.43
2018-05-25T16:11:20.082Z,2.50
2018-05-25T16:13:52.729Z,1.80
2018-05-25T16:16:25.341Z,1.90
2018-05-25T16:18:58.967Z,2.30
2018-05-25T16:21:32.343Z,2.10
2018-05-25T16:24:04.990Z,1.90
2018-05-25T16:26:37.587Z,2.00
2018-05-25T16:29:10.232Z,1.83
2018-05-25T16:31:42.828Z,2.00
2018-05-25T16:34:15.467Z,2.10
2018-05-25T16:36:48.063Z,2.00
2018-05-25T16:39:20.676Z,2.03
2018-05-25T16:41:53.274Z,1.70
2018-05-25T16:44:25.888Z,2.57
2018-05-25T16:46:58.484Z,2.00
2018-05-25T16:49:31.124Z,1.97
2018-05-25T16:52:03.714Z,2.00
2018-05-25T16:54:36.338Z,1.93
2018-05-25T16:57:08.959Z,2.33
2018-05-25T16:59:41.580Z,1.63
2018-05-25T17:02:14.185Z,2.00
2018-05-25T17:04:46.819Z,1.90
2018-05-25T17:07:19.423Z,1.90
2018-05-25T17:09:52.060Z,2.20
2018-05-25T17:12:24.659Z,1.90
2018-05-25T17:14:57.298Z,3.33
2018-05-25T17:17:30.658Z,2.57
2018-05-25T17:20:03.291Z,2.10
2018-05-25T17:22:35.888Z,3.57
2018-05-25T17:25:08.527Z,2.30
2018-05-25T17:27:41.134Z,2.57
2018-05-25T17:30:13.771Z,4.90
2018-05-25T17:32:47.131Z,2.63
2018-05-25T17:35:19.749Z,2.30
2018-05-25T17:37:52.344Z,2.03
2018-05-25T17:40:24.959Z,2.60
2018-05-25T17:42:58.331Z,2.37
2018-05-25T17:45:30.957Z,2.20
2018-05-25T17:48:04.356Z,2.20
2018-05-25T17:50:37.735Z,1.90
2018-05-25T17:53:10.351Z,2.23
2018-05-25T17:55:42.984Z,3.00
2018-05-25T17:58:15.587Z,1.70
2018-05-25T18:00:48.215Z,1.73
2018-05-25T18:03:20.980Z,2.83
2018-05-25T18:05:53.629Z,2.20
2018-05-25T18:08:26.327Z,1.80
2018-05-25T18:11:00.955Z,1.90
2018-05-25T18:13:34.447Z,2.70
2018-05-25T18:16:07.083Z,2.10
2018-05-25T18:18:39.685Z,2.43
2018-05-25T18:21:12.320Z,2.00
2018-05-25T18:23:44.925Z,1.97
2018-05-25T18:26:18.318Z,1.87
2018-05-25T18:28:50.910Z,2.00
2018-05-25T18:31:23.542Z,2.83
2018-05-25T18:34:02.048Z,2.37
2018-05-25T18:36:34.708Z,1.80
2018-05-25T18:39:07.308Z,2.17
2018-05-25T18:41:39.942Z,2.30
2018-05-25T18:44:12.532Z,2.00
2018-05-25T18:46:48.824Z,2.47
2018-05-25T18:49:21.596Z,2.60
2018-05-25T18:51:54.493Z,1.73
2018-05-25T18:54:32.663Z,1.90
2018-05-25T18:57:05.284Z,1.77
2018-05-25T18:59:37.882Z,1.80
2018-05-25T19:02:10.527Z,1.90
2018-05-25T19:04:43.157Z,1.77
2018-05-25T19:07:15.771Z,2.20
2018-05-25T19:09:48.387Z,1.63
2018-05-25T19:12:21.152Z,1.80
2018-05-25T19:14:53.978Z,1.70
2018-05-25T19:17:26.748Z,2.00
2018-05-25T19:20:00.663Z,1.80
2018-05-25T19:22:34.057Z,1.80
2018-05-25T19:25:06.650Z,1.90
2018-05-25T19:27:39.286Z,1.63
2018-05-25T19:30:11.885Z,1.50
2018-05-25T19:32:45.300Z,6.07
2018-05-25T19:35:17.907Z,2.70
2018-05-25T19:37:50.551Z,2.00
2018-05-25T19:40:23.903Z,1.33
2018-05-25T19:42:56.510Z,2.00
2018-05-25T19:45:29.095Z,2.37
2018-05-25T19:48:01.722Z,1.70
2018-05-25T19:50:35.075Z,1.77
2018-05-25T19:53:07.742Z,2.10
2018-05-25T19:55:40.589Z,1.70
2018-05-25T19:58:13.328Z,1.80
2018-05-25T20:00:45.930Z,1.80
2018-05-25T20:03:18.571Z,1.77
2018-05-25T20:05:51.174Z,1.57
2018-05-25T20:08:23.821Z,1.50
2018-05-25T20:10:56.412Z,1.73
2018-05-25T20:13:29.043Z,1.67
2018-05-25T20:16:01.635Z,1.80
2018-05-25T20:18:34.262Z,1.93
2018-05-25T20:21:06.935Z,1.70
2018-05-25T20:23:39.568Z,1.43
2018-05-25T20:26:12.155Z,1.93
2018-05-25T20:28:44.786Z,1.37
2018-05-25T20:31:17.392Z,1.60
2018-05-25T20:33:50.436Z,1.93
2018-05-25T20:36:23.030Z,1.50
2018-05-25T20:38:55.663Z,1.60
2018-05-25T20:41:28.262Z,1.70
2018-05-25T20:44:00.895Z,1.63
2018-05-25T20:46:33.479Z,1.70
2018-05-25T20:49:06.090Z,1.90
2018-05-25T20:51:38.689Z,1.93
2018-05-25T20:54:11.333Z,1.87
2018-05-25T20:56:43.933Z,1.80
2018-05-25T20:59:17.336Z,1.80
2018-05-25T21:01:49.944Z,1.93
2018-05-25T21:04:22.566Z,1.30
2018-05-25T21:06:55.151Z,1.70
2018-05-25T21:09:27.787Z,1.77
2018-05-25T21:12:00.378Z,1.67
2018-05-25T21:14:33.011Z,1.43
2018-05-25T21:17:05.606Z,1.30
2018-05-25T21:19:38.240Z,1.83
2018-05-25T21:22:10.848Z,1.60
2018-05-25T21:24:43.483Z,1.60
2018-05-25T21:27:16.075Z,1.90
2018-05-25T21:29:48.687Z,1.90
2018-05-25T21:32:21.303Z,1.90
2018-05-25T21:34:53.934Z,1.80
2018-05-25T21:37:26.532Z,1.80
2018-05-25T21:39:59.176Z,1.90
2018-05-25T21:42:31.775Z,2.13
2018-05-25T21:45:04.415Z,2.03
2018-05-25T21:47:37.007Z,2.07
2018-05-25T21:50:09.643Z,1.80
2018-05-25T21:52:42.251Z,1.90
2018-05-25T21:55:14.883Z,1.97
2018-05-25T21:57:47.477Z,1.90
2018-05-25T22:00:20.106Z,1.97
2018-05-25T22:02:52.702Z,1.90
2018-05-25T22:05:25.339Z,1.90
2018-05-25T22:07:57.934Z,2.10
2018-05-25T22:10:30.571Z,2.00
2018-05-25T22:13:03.170Z,1.53
2018-05-25T22:15:35.943Z,1.90
2018-05-25T22:18:08.535Z,2.10
2018-05-25T22:20:41.171Z,1.90
2018-05-25T22:23:13.759Z,1.90
2018-05-25T22:25:47.156Z,1.83
2018-05-25T22:28:19.753Z,1.83
2018-05-25T22:30:52.374Z,1.50
2018-05-25T22:33:25.005Z,2.43
2018-05-25T22:35:57.635Z,2.30
2018-05-25T22:38:30.992Z,2.07
2018-05-25T22:41:03.628Z,1.70
2018-05-25T22:43:48.716Z,2.10
2018-05-25T22:46:33.987Z,2.10
2018-05-25T22:49:18.471Z,1.97
2018-05-25T22:52:03.675Z,1.87
2018-05-25T22:54:42.234Z,2.23
2018-05-25T22:57:14.847Z,2.03
2018-05-25T22:59:47.444Z,1.93
2018-05-25T23:02:20.063Z,1.97
2018-05-25T23:04:52.656Z,2.37
2018-05-25T23:07:25.267Z,2.20
2018-05-25T23:09:57.866Z,1.80
2018-05-25T23:12:30.475Z,1.80
2018-05-25T23:15:03.063Z,1.77
2018-05-25T23:17:35.672Z,1.83
2018-05-25T23:20:08.272Z,2.10
2018-05-25T23:22:40.903Z,2.10
2018-05-25T23:25:14.254Z,1.80
2018-05-25T23:27:48.733Z,2.20
2018-05-25T23:30:21.340Z,2.40
2018-05-25T23:32:53.969Z,2.40
2018-05-25T23:35:26.562Z,2.30
2018-05-25T23:37:59.227Z,2.30
2018-05-25T23:40:31.820Z,1.80
2018-05-25T23:43:04.455Z,2.07
2018-05-25T23:45:37.048Z,2.20
2018-05-25T23:48:09.663Z,2.30
2018-05-25T23:50:42.264Z,1.60
2018-05-25T23:53:15.671Z,2.10
2018-05-25T23:55:49.036Z,2.00
2018-05-25T23:58:21.677Z,2.00
